Time;durP1;ratioP1;P1;durP2;ratioP2;P2;SDS_P1;SDS_P2;PMS_P1;PMS_P2;Temp;Humidity;BMP_temperature;BMP_pressure;BME280_temperature;BME280_humidity;BME280_pressure;Samples;Min_cycle;Max_cycle;Signal;HPM_P1;HPM_P2
2023/04/02 00:00:57;;;;;;;;;;;;;;;7.21;100.00;95639.78;5087626;28;19998;-83
2023/04/02 00:03:23;;;;;;;;;;;;;;;7.15;100.00;95657.59;5079570;28;19926;-84
2023/04/02 00:05:50;;;;;;;;;;;;;;;7.13;100.00;95648.16;5088626;28;19973;-84
2023/04/02 00:08:28;;;;;;;;;;;;;;;7.15;100.00;95646.88;5086897;28;19929;-83
2023/04/02 00:10:58;;;;;;;;;;;;;;;7.15;100.00;95640.69;5089801;28;20042;-84
2023/04/02 00:13:33;;;;;;;;;;;;;;;7.20;100.00;95646.19;5091932;28;19968;-83
2023/04/02 00:16:02;;;;;;;;;;;;;;;7.15;100.00;95646.03;5101916;28;19927;-84
2023/04/02 00:18:28;;;;;;;;;;;;;;;7.12;100.00;95647.34;5078953;28;19959;-83
2023/04/02 00:21:00;;;;;;;;;;;;;;;7.10;100.00;95641.38;5087516;28;19920;-83
2023/04/02 00:23:27;;;;;;;;;;;;;;;7.16;100.00;95639.63;5090435;28;19935;-83
2023/04/02 00:25:53;;;;;;;;;;;;;;;7.16;100.00;95642.31;5075564;28;19927;-84
2023/04/02 00:28:22;;;;;;;;;;;;;;;7.12;100.00;95650.03;5084454;28;19967;-83
2023/04/02 00:30:50;;;;;;;;;;;;;;;7.10;100.00;95653.97;5082416;28;19924;-84
2023/04/02 00:33:18;;;;;;;;;;;;;;;7.17;100.00;95643.97;5080148;28;19946;-84
2023/04/02 00:35:45;;;;;;;;;;;;;;;7.18;100.00;95648.28;5088075;28;19939;-83
2023/04/02 00:38:17;;;;;;;;;;;;;;;7.16;100.00;95647.69;5088144;28;19920;-84
2023/04/02 00:40:45;;;;;;;;;;;;;;;7.15;100.00;95646.88;5086995;28;20004;-83
2023/04/02 00:43:15;;;;;;;;;;;;;;;7.11;100.00;95656.44;5082492;28;19943;-83
2023/04/02 00:45:49;;;;;;;;;;;;;;;7.05;100.00;95668.06;5085047;28;19962;-83
2023/04/02 00:48:24;;;;;;;;;;;;;;;7.06;100.00;95656.28;5078539;28;19921;-84
2023/04/02 00:50:53;;;;;;;;;;;;;;;7.10;100.00;95659.34;5083861;28;19921;-83
2023/04/02 00:53:22;;;;;;;;;;;;;;;7.12;100.00;95654.56;5083380;28;19924;-84
2023/04/02 00:55:49;;;;;;;;;;;;;;;7.17;100.00;95654.69;5085317;28;19970;-83
2023/04/02 00:58:19;;;;;;;;;;;;;;;7.20;100.00;95654.25;5089304;28;19927;-83
2023/04/02 01:00:50;;;;;;;;;;;;;;;7.22;100.00;95653.00;5088918;28;19924;-83
2023/04/02 01:03:28;;;;;;;;;;;;;;;7.25;100.00;95651.69;5087154;28;19924;-83
2023/04/02 01:06:01;;;;;;;;;;;;;;;7.23;100.00;95659.16;5080403;28;19961;-84
2023/04/02 01:08:35;;;;;;;;;;;;;;;7.25;100.00;95659.75;5088693;28;19934;-83
2023/04/02 01:11:04;;;;;;;;;;;;;;;7.28;100.00;95661.19;5083224;28;20011;-84
2023/04/02 01:13:33;;;;;;;;;;;;;;;7.31;100.00;95660.75;5082543;28;19927;-83
2023/04/02 01:16:06;;;;;;;;;;;;;;;7.32;100.00;95665.84;5078829;28;19936;-83
2023/04/02 01:18:49;;;;;;;;;;;;;;;7.31;100.00;95675.00;5077077;28;19985;-84
2023/04/02 01:21:24;;;;;;;;;;;;;;;7.31;100.00;95666.94;5082964;28;19999;-84
2023/04/02 01:24:00;;;;;;;;;;;;;;;7.32;100.00;95676.59;5077996;28;19924;-84
2023/04/02 01:26:39;;;;;;;0.80;0.80;;;;;;;7.31;100.00;95666.13;5084134;28;20013;-83
2023/04/02 01:29:12;;;;;;;575.23;476.53;;;;;;;7.29;100.00;95669.00;5078805;28;20240;-83
2023/04/02 01:31:41;;;;;;;527.93;411.47;;;;;;;7.32;100.00;95673.91;5080023;28;20208;-83
2023/04/02 01:34:11;;;;;;;613.10;540.23;;;;;;;7.32;100.00;95670.41;5086812;28;20232;-83
2023/04/02 01:36:43;;;;;;;521.40;454.83;;;;;;;7.25;100.00;95670.50;5075748;28;20324;-83
2023/04/02 01:39:21;;;;;;;483.23;412.40;;;;;;;7.20;100.00;95659.63;5076196;28;20303;-83
2023/04/02 01:41:57;;;;;;;454.73;363.80;;;;;;;7.19;100.00;95674.09;5083178;28;20228;-83
2023/04/02 01:44:32;;;;;;;471.63;384.63;;;;;;;7.19;100.00;95663.34;5084222;28;20231;-83
2023/04/02 01:47:04;;;;;;;443.00;380.03;;;;;;;7.22;100.00;95662.91;5085796;28;20220;-83
2023/04/02 01:49:31;;;;;;;462.77;378.53;;;;;;;7.19;100.00;95668.72;5078461;28;20225;-83
2023/04/02 01:51:59;;;;;;;126.10;117.30;;;;;;;7.14;100.00;95656.00;5088614;28;20362;-83
2023/04/02 01:54:32;;;;;;;493.63;431.07;;;;;;;7.10;100.00;95664.69;5077255;28;20237;-83
2023/04/02 01:56:59;;;;;;;472.30;420.63;;;;;;;7.12;100.00;95666.13;5074321;28;20275;-83
2023/04/02 01:59:28;;;;;;;492.63;438.20;;;;;;;7.13;100.00;95664.25;5083919;28;20220;-83
2023/04/02 02:02:02;;;;;;;452.60;358.87;;;;;;;7.16;100.00;95677.22;5081823;28;20240;-83
2023/04/02 02:04:32;;;;;;;523.50;450.00;;;;;;;7.19;100.00;95666.03;5087076;28;20225;-83
2023/04/02 02:07:00;;;;;;;510.20;455.80;;;;;;;7.23;100.00;95681.47;5086410;28;20224;-83
2023/04/02 02:09:29;;;;;;;504.23;452.83;;;;;;;7.24;100.00;95676.91;5082315;28;20293;-84
2023/04/02 02:11:57;;;;;;;564.50;509.43;;;;;;;7.24;100.00;95682.28;5076443;28;20303;-83
2023/04/02 02:14:26;;;;;;;953.20;886.03;;;;;;;7.23;100.00;95688.69;5075220;28;20448;-83
2023/04/02 02:16:56;;;;;;;433.83;390.37;;;;;;;7.15;100.00;95694.38;5088337;28;20561;-83
2023/04/02 02:19:30;;;;;;;70.18;42.65;;;;;;;7.15;100.00;95695.19;5105348;28;20229;-83
2023/04/02 02:22:04;;;;;;;77.90;45.43;;;;;;;7.13;100.00;95701.84;5083073;28;20260;-83
2023/04/02 02:24:34;;;;;;;7.15;6.82;;;;;;;7.17;100.00;95705.72;5084280;28;20238;-83
2023/04/02 02:27:27;;;;;;;21.30;20.40;;;;;;;7.10;100.00;95702.28;5071993;28;20240;-83
2023/04/02 02:30:06;;;;;;;;;;;;;;;7.15;100.00;95713.16;5082678;28;20508;-83
2023/04/02 02:32:38;;;;;;;;;;;;;;;7.19;100.00;95712.50;5096610;28;19968;-84
2023/04/02 02:35:10;;;;;;;;;;;;;;;7.24;100.00;95717.19;5087065;28;19963;-83
2023/04/02 02:37:41;;;;;;;;;;;;;;;7.27;100.00;95719.44;5075296;28;20006;-83
2023/04/02 02:40:12;;;;;;;;;;;;;;;7.24;100.00;95719.88;5078728;28;19955;-84
2023/04/02 02:42:42;;;;;;;;;;;;;;;7.22;100.00;95724.66;5081788;28;19969;-83
2023/04/02 02:45:13;;;;;;;;;;;;;;;7.19;100.00;95719.75;5102135;28;19998;-83
2023/04/02 02:47:42;;;;;;;;;;;;;;;7.17;100.00;95719.97;5086071;28;20044;-84
2023/04/02 02:50:14;;;;;;;;;;;;;;;7.15;100.00;95726.59;5086215;28;19961;-83
2023/04/02 02:52:45;;;;;;;;;;;;;;;7.10;100.00;95724.59;5074217;28;20048;-84
2023/04/02 02:55:17;;;;;;;;;;;;;;;7.08;100.00;95725.84;5080904;28;20054;-84
2023/04/02 02:57:53;;;;;;;;;;;;;;;7.07;100.00;95730.38;5076847;28;19958;-84
2023/04/02 03:00:21;;;;;;;;;;;;;;;7.10;100.00;95729.13;5083082;28;19996;-84
2023/04/02 03:02:53;;;;;;;;;;;;;;;7.11;100.00;95731.59;5073453;28;19970;-83
2023/04/02 03:05:24;;;;;;;;;;;;;;;7.11;100.00;95733.47;5086425;28;19964;-84
2023/04/02 03:07:56;;;;;;;;;;;;;;;7.09;100.00;95738.22;5069636;28;19959;-83
2023/04/02 03:10:29;;;;;;;;;;;;;;;7.08;100.00;95733.91;5077594;28;19951;-83
2023/04/02 03:13:00;;;;;;;;;;;;;;;7.09;100.00;95747.09;5099817;28;19968;-83
2023/04/02 03:15:32;;;;;;;;;;;;;;;7.06;100.00;95744.84;5089203;28;19960;-83
2023/04/02 03:18:02;;;;;;;;;;;;;;;7.01;100.00;95744.72;5081369;28;19956;-84
2023/04/02 03:20:34;;;;;;;;;;;;;;;6.98;100.00;95747.81;5073921;28;19970;-84
2023/04/02 03:23:04;;;;;;;;;;;;;;;6.99;100.00;95741.41;5095873;28;19965;-83
2023/04/02 03:25:36;;;;;;;;;;;;;;;7.00;100.00;95742.25;5078634;28;20014;-83
2023/04/02 03:28:05;;;;;;;;;;;;;;;7.00;100.00;95750.28;5085923;28;19962;-84
2023/04/02 03:30:36;;;;;;;;;;;;;;;6.96;100.00;95749.94;5082614;28;19967;-83
2023/04/02 03:33:10;;;;;;;;;;;;;;;6.94;100.00;95757.38;5080553;28;19955;-84
2023/04/02 03:35:40;;;;;;;;;;;;;;;6.90;100.00;95763.41;5086243;28;19977;-83
2023/04/02 03:38:12;;;;;;;;;;;;;;;6.91;100.00;95765.03;5088803;28;19965;-85
2023/04/02 03:40:42;;;;;;;;;;;;;;;6.90;100.00;95764.22;5088350;28;19963;-84
2023/04/02 03:43:14;;;;;;;;;;;;;;;6.93;100.00;95758.41;5083938;28;19967;-84
2023/04/02 03:45:43;;;;;;;;;;;;;;;6.90;100.00;95766.09;5087351;28;19960;-84
2023/04/02 03:48:12;;;;;;;;;;;;;;;6.89;100.00;95775.19;5080322;28;19958;-84
2023/04/02 03:50:44;;;;;;;;;;;;;;;6.89;100.00;95772.53;5076776;28;19968;-84
2023/04/02 03:53:11;;;;;;;;;;;;;;;6.89;100.00;95773.31;5079494;28;19952;-84
2023/04/02 03:55:40;;;;;;;;;;;;;;;6.87;100.00;95771.91;5080656;28;19966;-83
2023/04/02 03:58:13;;;;;;;;;;;;;;;6.90;100.00;95776.81;5087748;28;19967;-83
2023/04/02 04:00:44;;;;;;;;;;;;;;;6.94;100.00;95784.22;5083130;28;20010;-83
2023/04/02 04:03:14;;;;;;;;;;;;;;;6.93;100.00;95771.03;5088059;28;20005;-83
2023/04/02 04:05:47;;;;;;;;;;;;;;;6.96;100.00;95781.31;5089796;28;19935;-82
2023/04/02 04:08:16;;;;;;;;;;;;;;;6.96;100.00;95784.00;5104823;28;19927;-82
2023/04/02 04:10:44;;;;;;;;;;;;;;;6.91;100.00;95773.09;5078921;28;19920;-83
2023/04/02 04:13:13;;;;;;;;;;;;;;;6.89;100.00;95783.25;5079750;28;19920;-83
2023/04/02 04:15:42;;;;;;;;;;;;;;;6.88;100.00;95789.66;5079521;28;19987;-82
2023/04/02 04:18:18;;;;;;;;;;;;;;;6.89;100.00;95796.66;5088682;28;19920;-82
2023/04/02 04:20:55;;;;;;;;;;;;;;;6.89;100.00;95796.66;5086665;28;19930;-83
2023/04/02 04:23:29;;;;;;;;;;;;;;;6.88;100.00;95789.66;5082958;28;19927;-83
2023/04/02 04:25:58;;;;;;;;;;;;;;;6.82;100.00;95794.84;5097830;28;19927;-83
2023/04/02 04:28:29;;;;;;;;;;;;;;;6.76;100.00;95798.41;5079360;28;19979;-83
2023/04/02 04:31:00;;;;;;;;;;;;;;;6.75;100.00;95796.78;5082236;28;19921;-83
2023/04/02 04:33:38;;;;;;;;;;;;;;;6.70;100.00;95803.84;5082477;28;19920;-82
2023/04/02 04:36:18;;;;;;;;;;;;;;;6.69;100.00;95808.38;5103481;28;19920;-83
2023/04/02 04:38:48;;;;;;;;;;;;;;;6.70;100.00;95812.72;5097390;28;19920;-82
2023/04/02 04:41:17;;;;;;;;;;;;;;;6.72;100.00;95815.19;5077874;28;19955;-81
2023/04/02 04:43:48;;;;;;;;;;;;;;;6.72;100.00;95810.63;5087170;28;19924;-82
2023/04/02 04:46:19;;;;;;;;;;;;;;;6.69;100.00;95812.94;5086584;28;19959;-83
2023/04/02 04:48:50;;;;;;;;;;;;;;;6.66;100.00;95822.22;5097184;28;19973;-82
2023/04/02 04:51:20;;;;;;;;;;;;;;;6.63;100.00;95820.00;5083597;28;19920;-82
2023/04/02 04:53:49;;;;;;;;;;;;;;;6.56;100.00;95829.94;5087874;28;19920;-83
2023/04/02 04:56:21;;;;;;;;;;;;;;;6.56;100.00;95829.13;5081030;28;19962;-82
2023/04/02 04:58:56;;;;;;;;;;;;;;;6.60;100.00;95831.16;5101636;28;19924;-83
2023/04/02 05:01:27;;;;;;;;;;;;;;;6.59;100.00;95829.50;5105178;28;20006;-83
2023/04/02 05:03:56;;;;;;;;;;;;;;;6.63;100.00;95836.09;5078947;28;19931;-82
2023/04/02 05:06:32;;;;;;;;;;;;;;;6.68;100.00;95838.94;5074166;28;20181;-83
2023/04/02 05:09:03;;;;;;;;;;;;;;;6.70;100.00;95836.88;5072846;28;19931;-83
2023/04/02 05:11:33;;;;;;;;;;;;;;;6.57;100.00;95838.81;5084431;28;19923;-83
2023/04/02 05:14:06;;;;;;;;;;;;;;;6.54;100.00;95836.59;5084570;28;19926;-83
2023/04/02 05:16:38;;;;;;;;;;;;;;;6.52;100.00;95841.34;5081636;28;19927;-83
2023/04/02 05:19:08;;;;;;;;;;;;;;;6.47;100.00;95847.34;5080255;28;19926;-83
2023/04/02 05:21:41;;;;;;;;;;;;;;;6.49;100.00;95856.00;5079768;28;19927;-83
2023/04/02 05:24:23;;;;;;;;;;;;;;;6.49;100.00;95847.94;5081864;28;19923;-83
2023/04/02 05:26:53;;;;;;;;;;;;;;;6.47;100.00;95852.69;5077020;28;19927;-83
2023/04/02 05:29:22;;;;;;;;;;;;;;;6.53;100.00;95849.16;5083565;28;19920;-83
2023/04/02 05:31:54;;;;;;;;;;;;;;;6.51;100.00;95842.38;5084665;28;19920;-83
2023/04/02 05:34:24;;;;;;;;;;;;;;;6.45;100.00;95852.13;5080755;28;19920;-83
2023/04/02 05:36:54;;;;;;;;;;;;;;;6.41;100.00;95850.88;5087102;28;19920;-83
2023/04/02 05:39:22;;;;;;;;;;;;;;;6.42;100.00;95855.22;5086302;28;19975;-83
2023/04/02 05:41:59;;;;;;;;;;;;;;;6.38;100.00;95854.81;5080495;28;20015;-83
2023/04/02 05:44:39;;;;;;;;;;;;;;;6.34;100.00;95858.16;5079604;28;19927;-83
2023/04/02 05:47:11;;;;;;;;;;;;;;;6.36;100.00;95861.44;5094081;28;19963;-83
2023/04/02 05:49:42;;;;;;;;;;;;;;;6.37;100.00;95868.47;5080591;28;19950;-82
2023/04/02 05:52:15;;;;;;;;;;;;;;;6.34;100.00;95864.34;5078025;28;19923;-83
2023/04/02 05:54:47;;;;;;;;;;;;;;;6.31;100.00;95870.13;5082367;28;19920;-83
2023/04/02 05:57:17;;;;;;;;;;;;;;;6.31;100.00;95871.97;5084477;28;19930;-83
2023/04/02 05:59:47;;;;;;;;;;;;;;;6.27;100.00;95873.47;5087329;28;19928;-83
2023/04/02 06:02:20;;;;;;;;;;;;;;;6.25;100.00;95870.16;5085789;28;19924;-83
2023/04/02 06:04:51;;;;;;;;;;;;;;;6.25;100.00;95875.53;5083506;28;19942;-83
2023/04/02 06:07:21;;;;;;;;;;;;;;;6.22;100.00;95881.31;5084745;28;19920;-83
2023/04/02 06:09:55;;;;;;;;;;;;;;;6.17;100.00;95883.81;5076875;28;19924;-83
2023/04/02 06:12:28;;;;;;;;;;;;;;;6.13;100.00;95888.78;5083594;28;19995;-83
2023/04/02 06:14:55;;;;;;;;;;;;;;;6.17;100.00;95899.91;5079326;28;19972;-82
2023/04/02 06:17:26;;;;;;;;;;;;;;;6.14;100.00;95881.56;5078986;28;19936;-82
2023/04/02 06:19:54;;;;;;;;;;;;;;;6.18;100.00;95901.56;5080507;28;20013;-83
2023/04/02 06:22:25;;;;;;;;;;;;;;;6.18;100.00;95897.03;5084198;28;19942;-83
2023/04/02 06:24:59;;;;;;;;;;;;;;;6.16;100.00;95899.09;5084867;28;19973;-84
2023/04/02 06:27:27;;;;;;;;;;;;;;;6.14;100.00;95901.16;5075192;28;19920;-83
2023/04/02 06:29:58;;;;;;;;;;;;;;;6.10;100.00;95908.00;5084814;28;19974;-84
2023/04/02 06:32:28;;;;;;;;;;;;;;;6.06;100.00;95907.56;5087446;28;19943;-83
2023/04/02 06:34:55;;;;;;;;;;;;;;;6.05;100.00;95907.78;5082350;28;19969;-83
2023/04/02 06:37:28;;;;;;;;;;;;;;;6.00;100.00;95905.75;5084775;28;19924;-83
2023/04/02 06:40:03;;;;;;;;;;;;;;;5.97;100.00;95914.22;5082828;28;19927;-83
2023/04/02 06:42:31;;;;;;;;;;;;;;;6.01;100.00;95915.44;5090104;28;19931;-83
2023/04/02 06:44:58;;;;;;;;;;;;;;;6.07;100.00;95914.59;5086296;28;19982;-83
2023/04/02 06:47:49;;;;;;;;;;;;;;;6.10;100.00;95921.38;5084259;28;19928;-83
2023/04/02 06:50:23;;;;;;;;;;;;;;;6.17;100.00;95921.34;5088953;28;19920;-84
2023/04/02 06:52:54;;;;;;;;;;;;;;;6.20;100.00;95927.13;5080588;28;19977;-83
2023/04/02 06:55:27;;;;;;;;;;;;;;;6.24;100.00;95927.50;5079132;28;19928;-83
2023/04/02 06:57:54;;;;;;;;;;;;;;;6.19;100.00;95919.28;5083955;28;19927;-83
2023/04/02 07:00:25;;;;;;;;;;;;;;;6.17;100.00;95932.06;5084518;28;19944;-83
2023/04/02 07:02:53;;;;;;;;;;;;;;;6.14;100.00;95932.50;5083981;28;19965;-82
2023/04/02 07:05:20;;;;;;;;;;;;;;;6.10;100.00;95929.44;5081545;28;19920;-83
2023/04/02 07:07:48;;;;;;;;;;;;;;;6.05;100.00;95929.22;5089778;28;19924;-83
2023/04/02 07:10:16;;;;;;;;;;;;;;;5.98;100.00;95926.56;5081875;28;19931;-82
2023/04/02 07:12:42;;;;;;;;;;;;;;;5.92;100.00;95930.13;5077492;28;20084;-83
2023/04/02 07:15:12;;;;;;;;;;;;;;;6.00;100.00;95927.19;5077554;28;19963;-82
2023/04/02 07:17:38;;;;;;;;;;;;;;;6.05;100.00;95924.69;5085208;28;20030;-83
2023/04/02 07:20:06;;;;;;;;;;;;;;;6.07;100.00;95925.31;5074168;28;19931;-82
2023/04/02 07:22:33;;;;;;;;;;;;;;;6.08;100.00;95923.44;5085366;28;19920;-83
2023/04/02 07:25:01;;;;;;;;;;;;;;;6.07;100.00;95933.34;5085565;28;19924;-83
2023/04/02 07:27:30;;;;;;;;;;;;;;;6.00;100.00;95935.25;5088521;28;19920;-83
2023/04/02 07:29:57;;;;;;;;;;;;;;;5.98;100.00;95928.44;5075869;28;19931;-83
2023/04/02 07:32:23;;;;;;;;;;;;;;;5.95;100.00;95928.88;5082336;28;19978;-83
2023/04/02 07:34:50;;;;;;;;;;;;;;;5.95;100.00;95924.34;5079358;28;19920;-83
2023/04/02 07:37:17;;;;;;;;;;;;;;;6.01;100.00;95931.53;5093216;28;19920;-83
2023/04/02 07:39:44;;;;;;;;;;;;;;;6.09;100.00;95927.78;5077962;28;19931;-83
2023/04/02 07:42:11;;;;;;;;;;;;;;;6.20;100.00;95924.44;5078127;28;20015;-83
2023/04/02 07:44:39;;;;;;;;;;;;;;;6.24;100.00;95927.50;5072522;28;19928;-83
2023/04/02 07:47:07;;;;;;;;;;;;;;;6.28;100.00;95934.09;5082918;28;19924;-83
2023/04/02 07:49:34;;;;;;;;;;;;;;;6.27;100.00;95930.59;5080445;28;19930;-83
2023/04/02 07:52:01;;;;;;;;;;;;;;;6.32;100.00;95935.31;5074618;28;19989;-83
2023/04/02 07:54:27;;;;;;;;;;;;;;;6.31;100.00;95934.47;5082261;28;20184;-83
2023/04/02 07:56:54;;;;;;;;;;;;;;;6.31;100.00;95933.66;5078327;28;19971;-83
2023/04/02 07:59:21;;;;;;;;;;;;;;;6.34;100.00;95934.06;5083512;28;19924;-83
2023/04/02 08:01:49;;;;;;;;;;;;;;;6.41;100.00;95929.47;5079420;28;19924;-83
2023/04/02 08:04:18;;;;;;;;;;;;;;;6.53;100.00;95926.94;5082012;28;19927;-82
2023/04/02 08:06:45;;;;;;;;;;;;;;;6.67;100.00;95933.88;5085550;28;19978;-83
2023/04/02 08:09:12;;;;;;;;;;;;;;;6.82;100.00;95939.75;5079960;28;19991;-83
2023/04/02 08:11:40;;;;;;;;;;;;;;;7.21;100.00;95930.59;5082274;28;19920;-83
2023/04/02 08:14:07;;;;;;;;;;;;;;;7.79;100.00;95932.13;5087214;28;19920;-83
2023/04/02 08:16:43;;;;;;;;;;;;;;;8.21;100.00;95935.78;5086603;28;19928;-82
2023/04/02 08:19:11;;;;;;;;;;;;;;;8.40;100.00;95939.31;5086265;28;19927;-83
2023/04/02 08:21:38;;;;;;;;;;;;;;;8.55;100.00;95932.47;5081214;28;19920;-82
2023/04/02 08:24:05;;;;;;;;;;;;;;;8.65;100.00;95937.31;5093661;28;19920;-82
2023/04/02 08:26:31;;;;;;;;;;;;;;;9.02;100.00;95933.44;5087553;28;19931;-83
2023/04/02 08:28:58;;;;;;;;;;;;;;;9.14;100.00;95936.16;5087987;28;19924;-83
2023/04/02 08:31:25;;;;;;;;;;;;;;;9.57;100.00;95935.03;5082890;28;20017;-83
2023/04/02 08:33:52;;;;;;;;;;;;;;;9.94;100.00;95935.63;5078323;28;19920;-83
2023/04/02 08:36:25;;;;;;;;;;;;;;;10.01;100.00;95942.53;5085206;28;19928;-83
2023/04/02 08:38:51;;;;;;;;;;;;;;;10.14;100.00;95939.56;5087884;28;19920;-82
2023/04/02 08:41:22;;;;;;;;;;;;;;;10.53;100.00;95937.19;5079026;28;19920;-83
2023/04/02 08:43:58;;;;;;;;;;;;;;;10.51;100.00;95926.63;5080532;28;19967;-82
2023/04/02 08:46:26;;;;;;;;;;;;;;;10.71;100.00;95936.19;5082953;28;19920;-83
2023/04/02 08:48:55;;;;;;;;;;;;;;;10.94;100.00;95936.06;5079958;28;19919;-82
2023/04/02 08:51:25;;;;;;;;;;;;;;;11.08;100.00;95932.00;5083987;28;19925;-83
2023/04/02 08:53:54;;;;;;;;;;;;;;;11.15;100.00;95927.25;5082062;28;19931;-83
2023/04/02 08:56:24;;;;;;;;;;;;;;;11.38;100.00;95929.81;5088448;28;19928;-83
2023/04/02 08:58:53;;;;;;;;;;;;;;;11.91;100.00;95925.78;5087245;28;20001;-83
2023/04/02 09:01:24;;;;;;;;;;;;;;;12.31;100.00;95930.13;5082230;28;20001;-83
2023/04/02 09:03:52;;;;;;;;;;;;;;;12.50;99.51;95934.16;5077884;28;19963;-83
2023/04/02 09:06:21;;;;;;;;;;;;;;;12.65;100.00;95934.34;5080465;28;19995;-83
2023/04/02 09:08:50;;;;;;;;;;;;;;;12.83;96.17;95942.16;5100708;28;19927;-83
2023/04/02 09:11:22;;;;;;;;;;;;;;;13.15;88.28;95938.69;5075208;28;19928;-83
2023/04/02 09:13:52;;;;;;;;;;;;;;;13.36;87.00;95936.97;5079027;28;19927;-83
2023/04/02 09:16:21;;;;;;;;;;;;;;;13.50;83.54;95941.75;5078267;28;20007;-83
2023/04/02 09:18:49;;;;;;;;;;;;;;;13.60;78.29;95932.88;5098752;28;19920;-83
2023/04/02 09:21:27;;;;;;;;;;;;;;;13.69;84.11;95933.22;5094539;28;20015;-84
2023/04/02 09:23:56;;;;;;;;;;;;;;;13.75;87.99;95935.69;5080502;28;19920;-83
2023/04/02 09:26:24;;;;;;;;;;;;;;;13.86;84.72;95936.59;5080958;28;19920;-83
2023/04/02 09:28:52;;;;;;;;;;;;;;;13.77;82.17;95940.88;5083664;28;19942;-83
2023/04/02 09:31:20;;;;;;;;;;;;;;;13.46;84.19;95943.31;5085602;28;19920;-83
2023/04/02 09:33:48;;;;;;;;;;;;;;;13.30;82.81;95933.41;5085838;28;19920;-83
2023/04/02 09:36:25;;;;;;;;;;;;;;;13.03;87.27;95938.00;5089146;28;19920;-84
2023/04/02 09:39:00;;;;;;;;;;;;;;;12.99;84.66;95942.31;5086613;28;19920;-83
2023/04/02 09:41:28;;;;;;;;;;;;;;;12.98;83.91;95946.91;5078193;28;19924;-83
2023/04/02 09:44:10;;;;;;;;;;;;;;;13.02;87.22;95950.72;5073264;28;19974;-83
2023/04/02 09:46:36;;;;;;;;;;;;;;;13.09;82.78;95948.66;5085451;28;19927;-83
2023/04/02 09:49:04;;;;;;;;;;;;;;;13.21;86.10;95935.78;5087146;28;19928;-83
2023/04/02 09:51:33;;;;;;;;;;;;;;;13.15;80.80;95950.38;5085104;28;19935;-83
2023/04/02 09:54:09;;;;;;;;;;;;;;;13.13;81.41;95949.78;5086840;28;19930;-83
2023/04/02 09:56:36;;;;;;;;;;;;;;;12.94;82.51;95945.75;5077150;28;19970;-83
2023/04/02 09:59:04;;;;;;;;;;;;;;;12.76;86.79;95959.66;5083232;28;20011;-83
2023/04/02 10:01:32;;;;;;;;;;;;;;;12.67;87.71;95962.00;5094566;28;19955;-83
2023/04/02 10:04:00;;;;;;;;;;;;;;;12.87;90.69;95956.81;5087343;28;19954;-83
2023/04/02 10:06:27;;;;;;;;;;;;;;;13.23;88.79;95949.09;5085984;28;19920;-83
2023/04/02 10:08:54;;;;;;;;;;;;;;;13.36;90.54;95948.66;5088990;28;19963;-83
2023/04/02 10:11:24;;;;;;;;;;;;;;;13.46;90.08;95959.59;5085207;28;19924;-83
2023/04/02 10:13:53;;;;;;;;;;;;;;;13.69;88.41;95954.94;5083838;28;19965;-83
2023/04/02 10:16:23;;;;;;;;;;;;;;;14.06;81.48;95963.03;5080828;28;19934;-83
2023/04/02 10:18:53;;;;;;;;;;;;;;;14.27;77.42;95954.78;5086354;28;19960;-83
2023/04/02 10:21:24;;;;;;;;;;;;;;;14.30;78.28;95950.69;5074211;28;20010;-83
2023/04/02 10:23:50;;;;;;;;;;;;;;;14.40;77.45;95950.78;5093668;28;19973;-83
2023/04/02 10:26:32;;;;;;;;;;;;;;;14.22;70.84;95949.31;5101620;28;19920;-83
2023/04/02 10:29:06;;;;;;;;;;;;;;;14.22;74.21;95959.34;5086246;28;19920;-83
2023/04/02 10:31:40;;;;;;;;;;;;;;;14.36;74.53;95950.50;5088342;28;19963;-83
2023/04/02 10:34:11;;;;;;;;;;;;;;;14.29;75.24;95951.81;5075788;28;19968;-83
2023/04/02 10:36:43;;;;;;;;;;;;;;;14.07;75.14;95959.25;5088826;28;19966;-83
2023/04/02 10:39:16;;;;;;;682.72;617.90;;;;;;;14.00;76.32;95964.91;5093346;28;19957;-83
2023/04/02 10:41:51;;;;;;;0.70;0.70;;;;;;;13.79;75.56;95953.09;5079681;28;20225;-83
2023/04/02 10:44:42;;;;;;;1.37;0.90;;;;;;;13.64;76.64;95953.78;5088763;28;20231;-83
2023/04/02 10:47:25;;;;;;;734.40;679.77;;;;;;;13.61;72.99;95962.44;5079832;28;20244;-83
2023/04/02 10:50:04;;;;;;;680.23;624.27;;;;;;;13.19;70.58;95965.03;5085500;28;20228;-83
2023/04/02 10:52:39;;;;;;;519.00;465.20;;;;;;;12.96;73.55;95970.72;5082710;28;20236;-83
2023/04/02 10:55:14;;;;;;;716.50;654.67;;;;;;;12.92;73.52;95961.47;5077109;28;20243;-83
2023/04/02 10:57:45;;;;;;;645.77;590.03;;;;;;;13.03;73.63;95963.22;5088892;28;20335;-83
2023/04/02 11:00:23;;;;;;;522.40;474.03;;;;;;;13.03;73.93;95965.09;5089114;28;20212;-83
2023/04/02 11:02:55;;;;;;;495.27;447.10;;;;;;;13.03;76.13;95968.63;5091410;28;20323;-83
2023/04/02 11:05:34;;;;;;;617.43;563.90;;;;;;;13.02;74.76;95969.69;5102529;28;20274;-83
2023/04/02 11:08:06;;;;;;;688.77;630.07;;;;;;;13.00;75.45;95977.28;5089868;28;20228;-83
2023/04/02 11:10:38;;;;;;;691.03;635.33;;;;;;;13.05;76.42;95966.50;5091849;28;20232;-83
2023/04/02 11:13:14;;;;;;;707.60;648.43;;;;;;;13.11;76.00;95975.47;5080577;28;20309;-83
2023/04/02 11:15:42;;;;;;;739.70;678.87;;;;;;;13.05;74.32;95979.22;5075336;28;20225;-83
2023/04/02 11:18:27;;;;;;;889.03;818.57;;;;;;;13.04;73.76;95983.00;5084966;28;20222;-83
2023/04/02 11:21:03;;;;;;;;;;;;;;;13.04;75.06;95983.00;5077837;28;20258;-83
2023/04/02 11:23:36;;;;;;;53.38;50.17;;;;;;;12.87;74.27;95978.47;5090760;28;20421;-83
2023/04/02 11:26:37;;;;;;;823.80;759.07;;;;;;;12.70;74.68;95987.75;5077615;28;20225;-83
2023/04/02 11:29:33;;;;;;;672.00;620.17;;;;;;;12.80;73.92;95988.69;5072807;28;20224;-83
2023/04/02 11:32:27;;;;;;;638.67;582.77;;;;;;;12.81;73.39;95984.09;5052414;28;20332;-83
2023/04/02 11:35:26;;;;;;;1.53;0.70;;;;;;;12.85;74.29;95991.47;5082930;28;20220;-83
2023/04/02 11:37:55;;;;;;;406.27;373.73;;;;;;;12.79;73.50;95984.34;5092177;28;20228;-83
2023/04/02 11:40:45;;;;;;;145.83;133.57;;;;;;;12.93;74.51;96000.25;5077637;28;20233;-83
2023/04/02 11:43:48;;;;;;;13.07;6.43;;;;;;;12.86;72.95;95995.81;5078924;28;20232;-83
2023/04/02 11:46:45;;;;;;;65.07;59.20;;;;;;;12.79;74.29;95997.91;5071900;28;20254;-82
2023/04/02 11:49:35;;;;;;;241.40;224.00;;;;;;;12.92;74.96;95999.41;5083290;28;20225;-83
2023/04/02 11:52:04;;;;;;;759.73;699.20;;;;;;;13.04;74.76;96004.69;5080692;28;20216;-83
2023/04/02 11:54:37;;;;;;;191.53;174.77;;;;;;;13.12;75.97;96002.34;5076225;28;20228;-83
2023/04/02 11:57:21;;;;;;;0.60;0.60;;;;;;;13.09;76.13;96002.03;5077879;28;20267;-83
2023/04/02 12:00:01;;;;;;;341.23;312.80;;;;;;;13.23;74.84;95998.69;5072544;28;20232;-82
2023/04/02 12:02:39;;;;;;;845.03;771.20;;;;;;;13.15;72.76;95999.16;5079560;28;20225;-83
2023/04/02 12:05:20;;;;;;;854.03;791.73;;;;;;;13.14;73.78;96002.94;5086091;28;20236;-83
2023/04/02 12:08:04;;;;;;;87.90;81.13;;;;;;;13.06;74.73;95997.13;5082075;28;20311;-83
2023/04/02 12:10:34;;;;;;;595.23;545.57;;;;;;;12.84;73.14;96000.66;5084133;28;20273;-83
2023/04/02 12:13:01;;;;;;;650.60;602.27;;;;;;;12.88;75.33;96007.22;5088067;28;20241;-83
2023/04/02 12:15:42;;;;;;;669.60;615.37;;;;;;;12.97;76.22;96012.19;5077682;28;20228;-83
2023/04/02 12:18:23;;;;;;;0.60;0.60;;;;;;;12.89;76.14;96011.56;5072667;28;20313;-82
2023/04/02 12:20:53;;;;;;;114.13;105.37;;;;;;;12.85;76.11;96007.72;5085620;28;20280;-83
2023/04/02 12:23:24;;;;;;;0.93;0.70;;;;;;;12.87;77.06;96015.59;5081058;28;20232;-83
2023/04/02 12:25:58;;;;;;;0.60;0.60;;;;;;;12.91;77.02;96010.50;5099410;28;20228;-83
2023/04/02 12:28:27;;;;;;;0.77;0.77;;;;;;;12.98;77.54;96006.53;5084508;28;20319;-83
2023/04/02 12:31:03;;;;;;;0.70;0.70;;;;;;;12.97;77.11;96012.19;5073449;28;20225;-83
2023/04/02 12:33:36;;;;;;;218.07;199.93;;;;;;;12.91;76.87;96015.94;5085294;28;20323;-83
2023/04/02 12:36:08;;;;;;;562.97;514.67;;;;;;;12.81;75.66;96017.44;5088744;28;20220;-83
2023/04/02 12:38:43;;;;;;;0.80;0.70;;;;;;;12.69;76.35;96014.03;5072892;28;20232;-83
2023/04/02 12:41:23;;;;;;;1.23;0.90;;;;;;;12.63;77.17;96022.34;5085241;28;20234;-83
2023/04/02 12:43:58;;;;;;;1.50;0.80;;;;;;;12.59;76.77;96015.81;5081358;28;20263;-83